Time;durP1;ratioP1;P1;durP2;ratioP2;P2;SDS_P1;SDS_P2;PMS_P1;PMS_P2;Temp;Humidity;BMP_temperature;BMP_pressure;BME280_temperature;BME280_humidity;BME280_pressure;Samples;Min_cycle;Max_cycle;Signal;HPM_P1;HPM_P2
2022/02/24 00:01:19;;;;;;;13.70;7.50;;;;;;;6.88;47.80;100994.08;117352;1183;23470;-49
2022/02/24 00:03:47;;;;;;;13.40;7.00;;;;;;;6.93;48.06;100991.00;117413;1183;21986;-49
2022/02/24 00:06:18;;;;;;;12.60;6.70;;;;;;;6.95;48.02;100989.27;117481;1183;21852;-64
2022/02/24 00:08:46;;;;;;;12.80;7.20;;;;;;;6.98;47.91;100987.58;117418;1185;21855;-64
2022/02/24 00:11:15;;;;;;;16.10;7.20;;;;;;;7.01;47.91;100985.88;117360;1186;21854;-49
2022/02/24 00:13:43;;;;;;;11.50;6.60;;;;;;;7.01;48.11;100986.39;117341;1185;23471;-49
2022/02/24 00:16:12;;;;;;;11.90;6.20;;;;;;;6.99;47.93;100990.55;117422;1183;23474;-65
2022/02/24 00:18:41;;;;;;;12.40;7.60;;;;;;;6.98;48.09;100996.30;117401;1185;21857;-65
2022/02/24 00:21:09;;;;;;;11.70;7.50;;;;;;;6.97;48.07;100993.50;117343;1186;21851;-65
2022/02/24 00:23:37;;;;;;;11.60;6.30;;;;;;;6.98;48.16;100999.61;117403;1186;23448;-49
2022/02/24 00:26:06;;;;;;;12.00;6.10;;;;;;;6.99;48.13;101000.48;117433;1185;22924;-64
2022/02/24 00:28:35;;;;;;;15.20;7.40;;;;;;;6.98;48.06;101002.58;117430;1183;23509;-49
2022/02/24 00:31:03;;;;;;;13.10;6.30;;;;;;;6.96;48.34;101001.86;117413;1186;21851;-49
2022/02/24 00:33:31;;;;;;;11.20;6.80;;;;;;;6.94;48.11;101001.48;117443;1184;22921;-65
2022/02/24 00:36:00;;;;;;;12.10;6.20;;;;;;;6.90;48.30;100999.50;117394;1183;21977;-65
2022/02/24 00:38:28;;;;;;;11.50;6.80;;;;;;;6.84;48.24;100998.74;117359;1185;23241;-49
2022/02/24 00:40:57;;;;;;;12.60;6.00;;;;;;;6.78;48.04;101007.21;117341;1185;23452;-65
2022/02/24 00:43:25;;;;;;;12.70;6.50;;;;;;;6.72;48.42;101006.61;117259;1186;21864;-49
2022/02/24 00:45:53;;;;;;;13.10;7.20;;;;;;;6.66;48.34;101008.95;117299;1186;23471;-65
2022/02/24 00:48:22;;;;;;;10.60;6.40;;;;;;;6.61;48.22;101006.98;117353;1186;21862;-65
2022/02/24 00:50:50;;;;;;;15.30;6.90;;;;;;;6.55;48.32;101006.55;117355;1186;23478;-65
2022/02/24 00:53:18;;;;;;;12.10;5.90;;;;;;;6.49;48.05;101003.50;117374;1185;23450;-64
2022/02/24 00:56:04;;;;;;;11.40;6.20;;;;;;;6.41;48.47;101000.06;117355;1183;22925;-49
2022/02/24 00:58:32;;;;;;;11.90;6.50;;;;;;;6.33;48.01;101001.69;117312;1186;21870;-49
2022/02/24 01:01:00;;;;;;;10.80;6.00;;;;;;;6.28;48.34;100999.70;117362;1186;21853;-64
2022/02/24 01:03:28;;;;;;;11.40;7.30;;;;;;;6.23;48.22;101000.12;117315;1180;22082;-64
2022/02/24 01:05:56;;;;;;;11.10;6.80;;;;;;;6.16;48.22;100996.38;117248;1186;22940;-49
2022/02/24 01:08:24;;;;;;;11.70;6.80;;;;;;;6.10;48.13;100994.02;117246;1189;21859;-49
2022/02/24 01:10:53;;;;;;;9.40;6.40;;;;;;;5.99;48.17;100997.81;117302;1186;23455;-65
2022/02/24 01:13:21;;;;;;;11.10;7.00;;;;;;;5.88;48.19;100995.38;117282;1189;21858;-65
2022/02/24 01:15:49;;;;;;;14.20;7.50;;;;;;;5.79;48.20;100998.52;117313;1182;23471;-64
2022/02/24 01:18:21;;;;;;;11.90;7.10;;;;;;;5.68;48.29;100998.85;117366;1186;21849;-49
2022/02/24 01:20:49;;;;;;;13.80;6.60;;;;;;;5.59;48.24;100999.74;117343;1185;23453;-49
2022/02/24 01:23:17;;;;;;;13.30;7.00;;;;;;;5.52;48.51;101001.36;117341;1186;21896;-64
2022/02/24 01:25:46;;;;;;;11.80;6.60;;;;;;;5.47;48.47;101005.27;117268;1188;21884;-64
2022/02/24 01:28:14;;;;;;;14.70;7.00;;;;;;;5.43;48.60;101002.93;117316;1185;23557;-49
2022/02/24 01:30:42;;;;;;;13.60;7.30;;;;;;;5.43;48.65;101004.66;117303;1186;21860;-49
2022/02/24 01:33:10;;;;;;;13.70;7.50;;;;;;;5.46;48.78;101007.86;117354;1186;21863;-65
2022/02/24 01:35:38;;;;;;;15.90;7.90;;;;;;;5.50;48.87;101014.20;117359;1186;23451;-59
2022/02/24 01:38:07;;;;;;;13.80;6.90;;;;;;;5.54;48.76;101015.48;117378;1186;23511;-65
2022/02/24 01:40:36;;;;;;;18.60;7.30;;;;;;;5.56;48.70;101023.01;117308;1186;23660;-48
2022/02/24 01:43:04;;;;;;;13.20;8.10;;;;;;;5.57;48.92;101025.29;117373;1188;23472;-65
2022/02/24 01:45:33;;;;;;;16.60;7.50;;;;;;;5.58;48.71;101026.52;117322;1188;21845;-65
2022/02/24 01:48:01;;;;;;;14.00;7.50;;;;;;;5.61;48.93;101030.42;117355;1185;23599;-65
2022/02/24 01:50:30;;;;;;;13.90;7.80;;;;;;;5.64;48.85;101031.52;117392;1183;23491;-50
2022/02/24 01:52:59;;;;;;;14.30;8.30;;;;;;;5.67;49.10;101034.89;117361;1186;23117;-49
2022/02/24 01:55:31;;;;;;;14.70;7.90;;;;;;;5.72;49.12;101036.55;117456;1186;23480;-50
2022/02/24 01:57:59;;;;;;;14.00;7.80;;;;;;;5.76;49.12;101032.26;117502;1183;22827;-49
2022/02/24 02:00:27;;;;;;;16.60;8.00;;;;;;;5.79;49.39;101038.23;117435;1182;23150;-65
2022/02/24 02:02:57;;;;;;;14.40;7.90;;;;;;;5.84;49.21;101039.02;117410;1183;21855;-65
2022/02/24 02:05:28;;;;;;;13.30;7.90;;;;;;;5.89;49.33;101044.69;117442;1186;22067;-64
2022/02/24 02:07:57;;;;;;;17.70;9.30;;;;;;;5.91;49.09;101044.20;117336;1183;22727;-49
2022/02/24 02:10:26;;;;;;;12.80;7.90;;;;;;;5.93;49.42;101044.74;118469;1186;21854;-49
2022/02/24 02:12:55;;;;;;;13.70;8.30;;;;;;;5.95;49.30;101039.56;117336;1186;23457;-65
2022/02/24 02:15:23;;;;;;;14.00;8.10;;;;;;;5.99;49.50;101038.25;117435;1182;24195;-51
2022/02/24 02:17:51;;;;;;;14.90;8.80;;;;;;;6.04;49.52;101038.00;117558;1181;21861;-49
2022/02/24 02:20:20;;;;;;;14.00;8.30;;;;;;;6.09;49.50;101040.34;117434;1183;24012;-49
2022/02/24 02:22:49;;;;;;;16.90;9.30;;;;;;;6.13;49.32;101041.63;117438;1185;21884;-49
2022/02/24 02:25:20;;;;;;;15.70;9.80;;;;;;;6.16;49.51;101044.65;117333;1182;23011;-65
2022/02/24 02:27:50;;;;;;;15.00;9.30;;;;;;;6.19;49.58;101042.95;117378;1182;22922;-65
2022/02/24 02:30:18;;;;;;;17.60;9.70;;;;;;;6.22;49.59;101045.61;117440;1183;21907;-49
2022/02/24 02:32:47;;;;;;;16.60;9.20;;;;;;;6.23;49.69;101045.11;117434;1183;23496;-65
2022/02/24 02:35:15;;;;;;;17.10;8.60;;;;;;;6.24;49.74;101046.52;117370;1183;21982;-65
2022/02/24 02:37:43;;;;;;;16.20;8.70;;;;;;;6.26;49.65;101046.38;117461;1183;22614;-65
2022/02/24 02:40:11;;;;;;;13.80;7.90;;;;;;;6.28;49.49;101054.08;117336;1186;23570;-48
2022/02/24 02:42:42;;;;;;;15.80;9.60;;;;;;;6.32;49.92;101053.44;117340;1182;21856;-49
2022/02/24 02:45:10;;;;;;;18.50;9.90;;;;;;;6.34;49.70;101056.27;117366;1186;23590;-64
2022/02/24 02:47:39;;;;;;;15.60;9.00;;;;;;;6.36;49.73;101059.09;117317;1182;23473;-49
2022/02/24 02:50:07;;;;;;;16.20;9.20;;;;;;;6.37;49.91;101062.08;117285;1182;23450;-64
2022/02/24 02:52:42;;;;;;;16.00;9.30;;;;;;;6.38;49.97;101065.92;117277;1182;23528;-49
2022/02/24 02:55:11;;;;;;;20.10;10.70;;;;;;;6.39;49.85;101064.89;117401;1184;23545;-64
2022/02/24 02:57:40;;;;;;;18.40;10.40;;;;;;;6.39;49.62;101064.38;117421;1186;22914;-50
2022/02/24 03:00:10;;;;;;;23.90;12.30;;;;;;;6.40;49.85;101068.75;117354;1182;23458;-49
2022/02/24 03:02:38;;;;;;;;;;;;;;;6.41;49.97;101068.74;117324;1186;22925;-49
2022/02/24 03:05:07;;;;;;;17.00;9.60;;;;;;;6.45;49.81;101071.77;117317;1186;21867;-49
2022/02/24 03:07:37;;;;;;;20.50;11.40;;;;;;;6.46;49.88;101070.40;117299;1186;23555;-49
2022/02/24 03:10:06;;;;;;;17.20;10.40;;;;;;;6.49;49.97;101073.05;117364;1186;21869;-65
2022/02/24 03:12:36;;;;;;;16.30;9.10;;;;;;;6.52;50.03;101073.46;117327;1186;22876;-49
2022/02/24 03:15:08;;;;;;;18.80;10.50;;;;;;;6.54;49.92;101076.63;117323;1185;22937;-65
2022/02/24 03:17:37;;;;;;;17.00;10.50;;;;;;;6.53;49.78;101075.23;117400;1185;21853;-64
2022/02/24 03:20:05;;;;;;;15.30;9.30;;;;;;;6.53;49.80;101075.91;117424;1185;21861;-65
2022/02/24 03:22:34;;;;;;;18.40;9.90;;;;;;;6.51;49.86;101078.48;117347;1186;24285;-49
2022/02/24 03:25:04;;;;;;;14.60;9.30;;;;;;;6.52;49.53;101075.55;117259;1186;21844;-50
2022/02/24 03:27:32;;;;;;;16.00;8.60;;;;;;;6.56;49.81;101074.57;117324;1185;22946;-66
2022/02/24 03:30:03;;;;;;;15.70;8.80;;;;;;;6.55;49.51;101077.53;117285;1185;24140;-60
2022/02/24 03:32:31;;;;;;;13.90;8.50;;;;;;;6.55;49.41;101078.39;117297;1182;21964;-51
2022/02/24 03:34:59;;;;;;;19.00;11.20;;;;;;;6.51;49.46;101078.31;117328;1185;22645;-50
2022/02/24 03:37:27;;;;;;;21.90;11.10;;;;;;;6.41;49.54;101079.21;117389;1186;24252;-50
2022/02/24 03:39:57;;;;;;;20.50;10.30;;;;;;;6.31;49.66;101082.88;117224;1182;21854;-51
2022/02/24 03:42:25;;;;;;;18.00;10.40;;;;;;;6.25;49.50;101081.21;117335;1184;23477;-52
2022/02/24 03:44:54;;;;;;;16.40;9.70;;;;;;;6.20;49.60;101080.77;117275;1183;22633;-66
2022/02/24 03:47:23;;;;;;;21.60;10.20;;;;;;;6.17;49.52;101083.89;117309;1182;22944;-67
2022/02/24 03:49:51;;;;;;;16.70;9.50;;;;;;;6.12;49.37;101084.84;117295;1182;22634;-49
2022/02/24 03:52:20;;;;;;;18.90;9.50;;;;;;;6.01;49.31;101092.46;117314;1183;22620;-50
2022/02/24 03:54:48;;;;;;;17.40;9.10;;;;;;;5.88;49.65;101092.39;117338;1183;23557;-66
2022/02/24 03:57:17;;;;;;;15.80;9.40;;;;;;;5.78;49.41;101096.73;117301;1184;21922;-67
2022/02/24 03:59:45;;;;;;;15.40;9.40;;;;;;;5.70;49.58;101102.87;119179;1183;21863;-68
2022/02/24 04:02:13;;;;;;;15.20;8.90;;;;;;;5.64;49.66;101109.36;117225;1176;21873;-50
2022/02/24 04:04:42;;;;;;;18.10;10.40;;;;;;;5.58;49.68;101108.71;117407;1185;21876;-50
2022/02/24 04:07:11;;;;;;;18.30;9.70;;;;;;;5.52;49.69;101118.17;117383;1182;23590;-65
2022/02/24 04:09:39;;;;;;;14.50;8.80;;;;;;;5.41;49.49;101123.86;117327;1183;23450;-66
2022/02/24 04:12:15;;;;;;;14.50;8.70;;;;;;;5.31;49.79;101123.66;117390;1185;21864;-66
2022/02/24 04:14:45;;;;;;;16.80;10.10;;;;;;;5.21;49.77;101122.94;117263;1181;23488;-50
2022/02/24 04:17:14;;;;;;;21.40;9.10;;;;;;;5.08;49.68;101126.64;117281;1181;22622;-50
2022/02/24 04:19:58;;;;;;;21.50;10.10;;;;;;;5.01;49.64;101127.88;117255;1186;23493;-50
2022/02/24 04:22:26;;;;;;;15.50;8.20;;;;;;;4.96;49.72;101129.66;117315;1185;22157;-64
2022/02/24 04:24:57;;;;;;;13.70;7.90;;;;;;;4.90;49.62;101130.07;117340;1185;23461;-64
2022/02/24 04:27:25;;;;;;;20.40;9.30;;;;;;;4.83;49.71;101134.96;117249;1186;23861;-50
2022/02/24 04:29:53;;;;;;;15.40;9.30;;;;;;;4.75;49.74;101136.15;117318;1183;21867;-63
2022/02/24 04:32:21;;;;;;;16.70;9.00;;;;;;;4.69;49.53;101137.58;117336;1186;22856;-56
2022/02/24 04:34:49;;;;;;;17.70;8.50;;;;;;;4.63;49.71;101140.23;117291;1186;24302;-50
2022/02/24 04:37:19;;;;;;;23.20;9.30;;;;;;;4.59;49.68;101142.56;117326;1185;22794;-64
2022/02/24 04:39:46;;;;;;;13.50;8.40;;;;;;;4.62;49.72;101144.02;117288;1185;21857;-64
2022/02/24 04:42:15;;;;;;;15.80;8.50;;;;;;;4.61;49.63;101148.69;117306;1185;21866;-49
2022/02/24 04:44:43;;;;;;;19.40;8.00;;;;;;;4.63;49.97;101152.73;117380;1182;24680;-64
2022/02/24 04:47:12;;;;;;;14.70;7.40;;;;;;;4.68;49.83;101161.70;117320;1183;23528;-49
2022/02/24 04:49:40;;;;;;;13.30;7.50;;;;;;;4.65;49.70;101170.51;117312;1183;23481;-64
2022/02/24 04:52:08;;;;;;;15.90;8.00;;;;;;;4.56;49.80;101174.46;117289;1183;23594;-65
2022/02/24 04:54:37;;;;;;;14.80;8.70;;;;;;;4.46;49.67;101180.63;117321;1185;23617;-50
2022/02/24 04:57:09;;;;;;;13.90;7.90;;;;;;;4.39;49.67;101185.67;117296;1186;24286;-67
2022/02/24 04:59:39;;;;;;;17.20;8.20;;;;;;;4.33;49.90;101195.41;117342;1184;22818;-48
2022/02/24 05:02:07;;;;;;;21.10;8.60;;;;;;;4.28;49.83;101203.80;117288;1185;23678;-67
2022/02/24 05:04:36;;;;;;;16.70;8.20;;;;;;;4.29;49.95;101208.20;117337;1185;23669;-67
2022/02/24 05:07:04;;;;;;;27.60;9.20;;;;;;;4.39;50.15;101213.98;117304;1185;23576;-66
2022/02/24 05:09:32;;;;;;;22.00;8.30;;;;;;;4.52;50.34;101213.64;117279;1182;21917;-49
2022/02/24 05:12:00;;;;;;;21.00;8.50;;;;;;;4.70;50.41;101216.52;117255;1182;21858;-49
2022/02/24 05:14:31;;;;;;;12.40;7.10;;;;;;;4.92;50.66;101216.89;117369;1185;23496;-50
2022/02/24 05:16:59;;;;;;;13.90;7.20;;;;;;;5.09;50.81;101214.69;117352;1183;24890;-64
2022/02/24 05:19:27;;;;;;;11.20;7.60;;;;;;;5.12;50.42;101216.49;117322;1186;21866;-51
2022/02/24 05:21:56;;;;;;;16.40;8.00;;;;;;;5.09;50.29;101215.71;117345;1186;21969;-64
2022/02/24 05:24:24;;;;;;;15.90;8.00;;;;;;;5.03;50.26;101215.61;117343;1185;23373;-64
2022/02/24 05:26:53;;;;;;;14.50;8.10;;;;;;;5.01;50.21;101216.77;117415;1185;21901;-64
2022/02/24 05:29:21;;;;;;;16.90;7.90;;;;;;;5.00;50.50;101220.57;117351;1183;24185;-50
2022/02/24 05:31:49;;;;;;;13.20;8.10;;;;;;;5.03;50.36;101220.46;117286;1184;24162;-65
2022/02/24 05:34:17;;;;;;;15.30;7.60;;;;;;;5.11;50.58;101224.11;117327;1182;24210;-50
2022/02/24 05:36:45;;;;;;;14.00;7.80;;;;;;;5.20;50.62;101224.84;117304;1185;23590;-51
2022/02/24 05:39:14;;;;;;;13.90;8.50;;;;;;;5.28;50.50;101222.62;117337;1186;23643;-65
2022/02/24 05:41:43;;;;;;;13.90;8.40;;;;;;;5.38;50.81;101225.61;117350;1186;22662;-50
2022/02/24 05:44:11;;;;;;;14.40;8.40;;;;;;;5.47;50.57;101225.99;117373;1185;22849;-50
2022/02/24 05:46:40;;;;;;;12.90;7.40;;;;;;;5.56;50.74;101229.83;117412;1185;23488;-62
2022/02/24 05:49:08;;;;;;;16.10;8.70;;;;;;;5.59;50.59;101233.92;117315;1185;21857;-52
2022/02/24 05:51:37;;;;;;;15.80;8.20;;;;;;;5.67;51.14;101230.77;117367;1185;21852;-50
2022/02/24 05:54:05;;;;;;;13.00;7.80;;;;;;;5.76;50.90;101232.18;117353;1185;23538;-51
2022/02/24 05:56:33;;;;;;;10.60;6.90;;;;;;;5.86;51.09;101230.83;117423;1183;23910;-66
2022/02/24 05:59:02;;;;;;;11.00;6.90;;;;;;;5.94;51.14;101230.65;117312;1183;21908;-66
2022/02/24 06:01:30;;;;;;;12.60;8.00;;;;;;;6.01;51.11;101229.60;117309;1184;23481;-50
2022/02/24 06:03:59;;;;;;;13.60;7.80;;;;;;;6.11;51.19;101231.02;117372;1176;21972;-51
2022/02/24 06:06:28;;;;;;;14.70;7.90;;;;;;;6.19;51.37;101228.73;117303;1183;23472;-65
2022/02/24 06:09:03;;;;;;;13.80;8.00;;;;;;;6.28;51.28;101231.51;117328;1182;21881;-51
2022/02/24 06:11:34;;;;;;;10.60;7.30;;;;;;;6.35;50.93;101231.30;117338;1186;23528;-51
2022/02/24 06:14:03;;;;;;;12.80;7.10;;;;;;;6.39;51.25;101235.04;117350;1183;22941;-66
2022/02/24 06:16:33;;;;;;;12.80;8.00;;;;;;;6.41;50.78;101234.36;117371;1182;21857;-66
2022/02/24 06:19:01;;;;;;;11.90;7.40;;;;;;;6.45;51.10;101236.53;117351;1183;22924;-66
2022/02/24 06:21:30;;;;;;;13.00;8.20;;;;;;;6.54;51.14;101238.98;117377;1185;23455;-51
2022/02/24 06:23:58;;;;;;;11.70;7.60;;;;;;;6.60;51.22;101240.64;117315;1186;21909;-52
2022/02/24 06:26:26;;;;;;;15.20;8.30;;;;;;;6.63;51.20;101238.42;117179;1187;21863;-52
2022/02/24 06:28:55;;;;;;;11.30;7.80;;;;;;;6.66;50.97;101237.44;117354;1186;22925;-51
2022/02/24 06:31:23;;;;;;;16.30;8.70;;;;;;;6.70;51.12;101238.73;117323;1182;22918;-65
2022/02/24 06:33:52;;;;;;;10.30;6.80;;;;;;;6.75;51.16;101240.73;117314;1185;23451;-64
2022/02/24 06:36:20;;;;;;;12.90;7.20;;;;;;;6.84;51.30;101242.09;117391;1185;23995;-51
2022/02/24 06:38:49;;;;;;;12.40;7.40;;;;;;;6.97;51.32;101246.33;117268;1186;24813;-53
2022/02/24 06:41:20;;;;;;;15.30;8.40;;;;;;;7.13;51.34;101246.76;116794;1186;21867;-64
2022/02/24 06:43:48;;;;;;;12.70;8.00;;;;;;;7.21;51.37;101246.71;117264;1185;24258;-65
2022/02/24 06:46:18;;;;;;;15.60;8.30;;;;;;;7.24;51.29;101253.05;117335;1186;23441;-57
2022/02/24 06:48:46;;;;;;;19.90;9.40;;;;;;;7.27;51.45;101256.92;117526;1185;23591;-51
2022/02/24 06:51:15;;;;;;;19.30;8.60;;;;;;;7.38;51.47;101259.02;117268;1185;23473;-63
2022/02/24 06:53:43;;;;;;;14.90;8.40;;;;;;;7.54;51.64;101265.53;117269;1184;23643;-50
2022/02/24 06:56:11;;;;;;;12.60;7.40;;;;;;;7.62;51.43;101268.78;117334;1186;23488;-64
2022/02/24 06:58:42;;;;;;;14.80;9.10;;;;;;;7.66;51.39;101271.10;117291;1186;23458;-50
2022/02/24 07:01:11;;;;;;;18.40;10.70;;;;;;;7.66;51.45;101276.89;117367;1185;22789;-51
2022/02/24 07:03:39;;;;;;;24.90;15.90;;;;;;;7.70;51.37;101272.05;117329;1182;22919;-63
2022/02/24 07:06:08;;;;;;;22.30;13.00;;;;;;;7.73;51.29;101277.14;117364;1185;23487;-63
2022/02/24 07:08:37;;;;;;;16.60;11.90;;;;;;;7.76;51.27;101274.39;117374;1185;24142;-53
2022/02/24 07:11:06;;;;;;;33.10;20.20;;;;;;;7.79;51.22;101275.29;117461;1185;21959;-64
2022/02/24 07:13:36;;;;;;;24.40;15.50;;;;;;;7.85;51.28;101280.98;117244;1184;23581;-50
2022/02/24 07:16:24;;;;;;;22.00;14.60;;;;;;;7.84;51.31;101280.63;117306;1182;23593;-64
2022/02/24 07:18:52;;;;;;;18.90;12.60;;;;;;;7.86;51.36;101282.58;117331;1182;21867;-50
2022/02/24 07:21:21;;;;;;;14.90;10.40;;;;;;;7.95;51.31;101285.83;117505;1185;23451;-49
2022/02/24 07:23:50;;;;;;;15.10;9.10;;;;;;;8.05;51.52;101284.91;117348;1186;22996;-50
2022/02/24 07:26:19;;;;;;;17.90;11.00;;;;;;;8.17;51.48;101286.27;117288;1185;23486;-50
2022/02/24 07:28:47;;;;;;;16.70;9.00;;;;;;;8.31;51.47;101284.86;117296;1183;21891;-50
2022/02/24 07:31:17;;;;;;;13.30;9.30;;;;;;;8.47;51.81;101285.23;117298;1186;21859;-62
2022/02/24 07:33:45;;;;;;;11.50;7.90;;;;;;;8.62;51.70;101284.35;117317;1185;23454;-64
2022/02/24 07:36:14;;;;;;;22.40;12.20;;;;;;;8.75;51.77;101284.48;117314;1182;24169;-67
2022/02/24 07:38:42;;;;;;;21.40;13.20;;;;;;;8.87;51.71;101287.75;117320;1185;24175;-65
2022/02/24 07:41:11;;;;;;;17.60;10.60;;;;;;;9.01;51.68;101290.33;117408;1183;22297;-65
2022/02/24 07:43:39;;;;;;;18.90;9.50;;;;;;;9.20;51.91;101290.48;117355;1185;23478;-52
2022/02/24 07:46:08;;;;;;;14.30;8.70;;;;;;;9.42;52.02;101291.01;117379;1185;21847;-52
2022/02/24 07:48:37;;;;;;;12.90;7.80;;;;;;;9.65;52.05;101294.83;117373;1185;21956;-50
2022/02/24 07:51:05;;;;;;;14.80;7.70;;;;;;;9.83;51.79;101298.27;117390;1184;24229;-51
2022/02/24 07:53:36;;;;;;;11.50;7.00;;;;;;;9.95;51.85;101296.05;117299;1182;23473;-65
2022/02/24 07:56:05;;;;;;;12.80;7.00;;;;;;;10.09;51.82;101292.77;117274;1185;22817;-51
2022/02/24 07:58:33;;;;;;;10.30;6.90;;;;;;;10.21;51.74;101295.63;117317;1186;21862;-64
2022/02/24 08:01:01;;;;;;;15.80;6.50;;;;;;;10.31;51.75;101295.32;117365;1185;22629;-65
2022/02/24 08:03:30;;;;;;;10.90;6.60;;;;;;;10.44;51.76;101297.67;117436;1185;23529;-52
2022/02/24 08:05:58;;;;;;;10.90;6.80;;;;;;;10.53;51.82;101293.31;117345;1185;23577;-52
2022/02/24 08:08:28;;;;;;;9.80;6.00;;;;;;;10.60;51.76;101287.37;117373;1186;23448;-66
2022/02/24 08:10:56;;;;;;;8.70;6.30;;;;;;;10.68;51.76;101291.77;117369;1185;23557;-65
2022/02/24 08:13:25;;;;;;;7.10;5.10;;;;;;;10.78;51.69;101291.61;117327;1185;23442;-66
2022/02/24 08:16:13;;;;;;;10.10;5.20;;;;;;;10.86;51.56;101295.48;117266;1185;21867;-53
2022/02/24 08:18:42;;;;;;;12.00;5.60;;;;;;;10.92;51.51;101290.21;117425;1184;23557;-52
2022/02/24 08:21:10;;;;;;;11.60;6.40;;;;;;;10.95;51.42;101289.35;117352;1184;23557;-50
2022/02/24 08:23:38;;;;;;;10.90;6.10;;;;;;;11.01;51.49;101288.48;117344;1185;21907;-68
2022/02/24 08:26:07;;;;;;;11.40;7.40;;;;;;;11.09;51.60;101287.41;117342;1183;23545;-50
2022/02/24 08:28:36;;;;;;;13.10;9.80;;;;;;;11.25;51.79;101293.39;117291;1182;21877;-52
2022/02/24 08:31:04;;;;;;;10.70;7.40;;;;;;;11.44;51.73;101289.86;117343;1183;24169;-67
2022/02/24 08:33:33;;;;;;;10.10;6.80;;;;;;;11.61;51.75;101293.88;117369;1184;21853;-52
2022/02/24 08:36:01;;;;;;;9.80;6.40;;;;;;;11.79;51.90;101293.30;117382;1186;24261;-51
2022/02/24 08:38:30;;;;;;;9.10;6.20;;;;;;;11.98;51.89;101290.97;117315;1183;21866;-67
2022/02/24 08:41:18;;;;;;;8.40;6.00;;;;;;;12.14;51.77;101292.86;117304;1185;23488;-54
2022/02/24 08:43:46;;;;;;;12.90;8.00;;;;;;;12.24;51.58;101294.23;117243;1182;23601;-51
2022/02/24 08:46:14;;;;;;;13.10;8.60;;;;;;;12.29;51.41;101293.16;117348;1182;21998;-52
2022/02/24 08:48:43;;;;;;;11.90;8.10;;;;;;;12.38;51.73;101294.33;117242;1183;23628;-65
2022/02/24 08:51:11;;;;;;;10.60;6.70;;;;;;;12.49;51.53;101292.34;117374;1184;21974;-65
2022/02/24 08:53:40;;;;;;;9.60;6.50;;;;;;;12.59;51.69;101289.46;117303;1184;21906;-51
2022/02/24 08:56:08;;;;;;;11.00;6.50;;;;;;;12.65;51.70;101290.31;117301;1184;22575;-65
2022/02/24 08:58:36;;;;;;;12.00;5.80;;;;;;;12.71;51.35;101292.04;117336;1182;21877;-52
2022/02/24 09:01:05;;;;;;;10.60;6.30;;;;;;;12.74;51.40;101292.55;117360;1185;23448;-52
2022/02/24 09:03:33;;;;;;;8.20;5.50;;;;;;;12.73;51.36;101293.42;117309;1185;21862;-52
2022/02/24 09:06:07;;;;;;;7.20;5.50;;;;;;;12.74;51.30;101292.55;117262;1182;22925;-63
2022/02/24 09:08:35;;;;;;;15.20;7.00;;;;;;;12.75;51.38;101292.19;117230;1184;24187;-65
2022/02/24 09:11:03;;;;;;;9.50;6.30;;;;;;;12.80;51.38;101290.40;117282;1183;23553;-63
2022/02/24 09:13:34;;;;;;;14.50;7.20;;;;;;;12.85;51.43;101295.83;117301;1183;22925;-51
2022/02/24 09:16:02;;;;;;;9.90;5.40;;;;;;;12.97;51.64;101296.61;117266;1182;22939;-64
2022/02/24 09:18:31;;;;;;;10.80;5.10;;;;;;;13.19;51.70;101295.38;117303;1185;24599;-54
2022/02/24 09:20:59;;;;;;;6.40;4.50;;;;;;;13.43;51.79;101289.36;117292;1185;23493;-63
2022/02/24 09:23:28;;;;;;;11.40;5.80;;;;;;;13.74;51.93;101287.65;117321;1185;24162;-53
2022/02/24 09:25:56;;;;;;;6.80;4.10;;;;;;;14.05;51.85;101282.02;117296;1185;23544;-64
2022/02/24 09:28:24;;;;;;;6.80;4.20;;;;;;;14.27;51.70;101282.79;117287;1183;21858;-53
2022/02/24 09:30:53;;;;;;;7.40;4.50;;;;;;;14.42;51.62;101278.34;117416;1184;22925;-54
2022/02/24 09:33:21;;;;;;;8.30;4.80;;;;;;;14.54;51.37;101281.36;117320;1182;21905;-52
2022/02/24 09:35:49;;;;;;;6.70;4.60;;;;;;;14.53;51.06;101280.14;117356;1182;23528;-52
2022/02/24 09:38:18;;;;;;;9.50;4.30;;;;;;;14.37;50.66;101281.23;117340;1183;24162;-51
2022/02/24 09:40:51;;;;;;;6.70;3.60;;;;;;;14.22;50.71;101281.62;117321;1183;23452;-67
2022/02/24 09:43:28;;;;;;;6.80;3.60;;;;;;;14.16;50.68;101280.45;117259;1185;23502;-52
2022/02/24 09:46:02;;;;;;;5.40;3.90;;;;;;;14.10;50.70;101277.17;117273;1185;21859;-52
2022/02/24 09:48:33;;;;;;;8.20;3.40;;;;;;;14.10;50.78;101278.41;117299;1183;21859;-65
2022/02/24 09:51:03;;;;;;;6.00;3.50;;;;;;;14.23;51.05;101272.05;117297;1185;23449;-54
2022/02/24 09:53:31;;;;;;;6.20;4.40;;;;;;;14.49;51.25;101273.66;117214;1184;23529;-54
2022/02/24 09:56:02;;;;;;;4.70;3.20;;;;;;;14.66;50.98;101268.29;117321;1185;23486;-52
2022/02/24 09:58:32;;;;;;;8.30;3.10;;;;;;;14.68;50.54;101270.55;117282;1185;24165;-67
2022/02/24 10:01:01;;;;;;;4.50;3.10;;;;;;;14.53;50.25;101270.61;117326;1176;23264;-67
2022/02/24 10:03:40;;;;;;;7.60;3.10;;;;;;;14.41;50.25;101266.71;117273;1185;23579;-53
2022/02/24 10:06:10;;;;;;;6.90;3.30;;;;;;;14.32;50.37;101261.02;117287;1185;22914;-53
2022/02/24 10:08:52;;;;;;;6.40;3.20;;;;;;;14.39;50.57;101261.08;117240;1185;23451;-65
2022/02/24 10:11:22;;;;;;;4.10;2.70;;;;;;;14.52;50.63;101260.02;117359;1185;22323;-52
2022/02/24 10:14:10;;;;;;;5.20;3.60;;;;;;;14.69;50.63;101258.38;117311;1185;23560;-70
2022/02/24 10:17:00;;;;;;;7.20;3.80;;;;;;;14.75;50.21;101260.77;117260;1184;23487;-52
2022/02/24 10:19:31;;;;;;;7.00;3.80;;;;;;;14.72;50.07;101255.50;117351;1186;23557;-65
2022/02/24 10:22:19;;;;;;;5.90;3.70;;;;;;;14.61;49.80;101255.46;117356;1183;23448;-53
2022/02/24 10:25:08;;;;;;;5.60;3.20;;;;;;;14.36;49.53;101254.41;117327;1186;21876;-66
2022/02/24 10:27:38;;;;;;;6.30;2.60;;;;;;;14.20;49.75;101253.04;117334;1183;21925;-53
2022/02/24 10:30:13;;;;;;;5.40;3.10;;;;;;;14.12;49.77;101252.80;117359;1183;21855;-52
2022/02/24 10:32:43;;;;;;;5.20;3.40;;;;;;;14.16;50.01;101250.27;117258;1185;21907;-66
2022/02/24 10:35:24;;;;;;;7.00;2.90;;;;;;;14.25;50.05;101239.38;117351;1185;21858;-64
2022/02/24 10:38:10;;;;;;;7.30;2.80;;;;;;;14.46;50.41;101232.73;117220;1185;24312;-68
2022/02/24 10:40:39;;;;;;;7.20;3.50;;;;;;;14.85;50.76;101238.87;117257;1185;23894;-53
2022/02/24 10:43:20;;;;;;;8.60;4.70;;;;;;;15.08;50.13;101238.84;117738;1184;22951;-70
2022/02/24 10:46:08;;;;;;;7.40;3.60;;;;;;;15.10;49.77;101236.87;117311;1185;22924;-53
2022/02/24 10:48:55;;;;;;;5.50;3.40;;;;;;;15.09;49.70;101237.77;117650;1182;24133;-67
2022/02/24 10:51:25;;;;;;;4.20;2.70;;;;;;;15.08;49.77;101245.38;117261;1184;21977;-66
2022/02/24 10:54:09;;;;;;;7.60;3.40;;;;;;;15.12;49.80;101249.74;117487;1185;22657;-60
2022/02/24 10:56:41;;;;;;;5.70;2.80;;;;;;;15.18;50.09;101241.69;117455;1182;22734;-65
2022/02/24 10:59:10;;;;;;;5.00;3.10;;;;;;;15.27;50.07;101245.05;117329;1185;21945;-67
2022/02/24 11:01:40;;;;;;;6.80;3.20;;;;;;;15.33;49.89;101243.17;117376;1185;21987;-54
2022/02/24 11:04:08;;;;;;;4.20;2.80;;;;;;;15.39;49.93;101244.49;117216;1178;22065;-68
2022/02/24 11:06:37;;;;;;;7.20;3.20;;;;;;;15.49;50.04;101248.53;117326;1185;22946;-54
2022/02/24 11:09:07;;;;;;;8.90;3.10;;;;;;;15.56;49.77;101249.64;117252;1184;22967;-66
2022/02/24 11:11:36;;;;;;;5.60;2.80;;;;;;;15.56;49.62;101248.95;117851;1185;22926;-53
2022/02/24 11:14:06;;;;;;;7.20;2.80;;;;;;;15.45;49.40;101254.63;117341;1183;22918;-68
2022/02/24 11:16:34;;;;;;;5.10;2.70;;;;;;;15.30;49.30;101248.89;117406;1185;23560;-67
2022/02/24 11:19:03;;;;;;;10.00;3.20;;;;;;;15.16;49.14;101243.11;117357;1185;24217;-66
2022/02/24 11:21:47;;;;;;;7.00;3.40;;;;;;;15.11;49.34;101246.73;117364;1184;22000;-64
2022/02/24 11:24:15;;;;;;;8.10;4.10;;;;;;;15.05;49.23;101248.62;117354;1182;21845;-69
2022/02/24 11:27:16;;;;;;;6.40;3.30;;;;;;;14.95;49.10;101244.91;117304;1182;21857;-68
2022/02/24 11:30:04;;;;;;;4.60;2.50;;;;;;;14.65;48.50;101240.23;117270;1179;23590;-64